Time;durP1;ratioP1;P1;durP2;ratioP2;P2;SDS_P1;SDS_P2;PMS_P1;PMS_P2;Temp;Humidity;BMP_temperature;BMP_pressure;BME280_temperature;BME280_humidity;BME280_pressure;Samples;Min_cycle;Max_cycle;Signal;HPM_P1;HPM_P2
2022/04/16 00:00:15;;;;;;;35.63;20.63;;;;;;;-145.18;100.00;60484.78;5027453;28;20044;-68
2022/04/16 00:02:41;;;;;;;36.60;22.30;;;;;;;-145.18;100.00;60484.78;5024029;28;20053;-68
2022/04/16 00:05:07;;;;;;;35.73;19.30;;;;;;;-145.18;100.00;60484.78;5022090;28;20741;-69
2022/04/16 00:07:33;;;;;;;32.87;18.37;;;;;;;-145.18;100.00;60484.78;5031989;28;20033;-68
2022/04/16 00:09:58;;;;;;;34.60;19.83;;;;;;;-145.18;100.00;60484.78;5025736;28;20036;-68
2022/04/16 00:12:24;;;;;;;33.40;19.07;;;;;;;-145.18;100.00;60484.78;5032334;28;20029;-68
2022/04/16 00:14:49;;;;;;;37.93;20.30;;;;;;;-145.18;100.00;60484.78;5023036;28;20037;-68
2022/04/16 00:17:16;;;;;;;33.77;19.23;;;;;;;-145.18;100.00;60484.78;5030737;28;20619;-69
2022/04/16 00:19:43;;;;;;;29.17;16.80;;;;;;;-145.18;100.00;60484.78;5022399;28;20041;-69
2022/04/16 00:22:12;;;;;;;33.90;19.13;;;;;;;-145.18;100.00;60484.78;5031815;28;20125;-69
2022/04/16 00:24:50;;;;;;;37.83;20.30;;;;;;;-145.18;100.00;60484.78;5026384;28;20033;-69
2022/04/16 00:27:16;;;;;;;33.67;18.37;;;;;;;-145.18;100.00;60484.78;5031899;28;20116;-68
2022/04/16 00:29:41;;;;;;;37.47;21.40;;;;;;;-145.18;100.00;60484.78;5025805;28;20544;-69
2022/04/16 00:32:07;;;;;;;33.77;20.17;;;;;;;-145.18;100.00;60484.78;5030373;28;20029;-69
2022/04/16 00:34:33;;;;;;;32.30;17.87;;;;;;;-145.18;100.00;60484.78;5027896;28;20036;-69
2022/04/16 00:36:58;;;;;;;35.43;19.80;;;;;;;-145.18;100.00;60484.78;5031012;28;20637;-68
2022/04/16 00:39:25;;;;;;;39.10;20.83;;;;;;;-145.18;100.00;60484.78;5029459;28;20037;-69
2022/04/16 00:41:51;;;;;;;37.03;21.23;;;;;;;-145.18;100.00;60484.78;5027570;28;20033;-69
2022/04/16 00:44:19;;;;;;;37.83;19.97;;;;;;;-145.18;100.00;60484.78;5028976;28;20047;-69
2022/04/16 00:46:45;;;;;;;39.53;21.17;;;;;;;-145.18;100.00;60484.78;5010045;28;20029;-69
2022/04/16 00:49:11;;;;;;;39.10;22.17;;;;;;;-145.18;100.00;60484.78;5030425;28;20044;-69
2022/04/16 00:51:36;;;;;;;35.23;18.77;;;;;;;-145.18;100.00;60484.78;5025608;28;20720;-69
2022/04/16 00:54:02;;;;;;;36.53;20.93;;;;;;;-145.18;100.00;60484.78;5023224;28;20035;-69
2022/04/16 00:56:28;;;;;;;33.87;19.47;;;;;;;-145.18;100.00;60484.78;5028672;28;20033;-69
2022/04/16 00:58:53;;;;;;;35.00;20.17;;;;;;;-145.18;100.00;60484.78;5024589;28;20404;-69
2022/04/16 01:01:18;;;;;;;37.43;20.60;;;;;;;-145.18;100.00;60484.78;5022721;28;20562;-68
2022/04/16 01:03:46;;;;;;;33.07;17.43;;;;;;;-145.18;100.00;60484.78;5028931;28;20037;-69
2022/04/16 01:06:14;;;;;;;35.73;19.13;;;;;;;-145.18;100.00;60484.78;5029380;28;20068;-69
2022/04/16 01:08:42;;;;;;;35.60;20.53;;;;;;;-145.18;100.00;60484.78;5022429;28;20124;-69
2022/04/16 01:11:08;;;;;;;36.13;20.70;;;;;;;-145.18;100.00;60484.78;5028574;28;20424;-69
2022/04/16 01:13:33;;;;;;;34.47;19.67;;;;;;;-145.18;100.00;60484.78;5028914;28;20029;-69
2022/04/16 01:15:59;;;;;;;34.37;17.30;;;;;;;-145.18;100.00;60484.78;5031029;28;20462;-69
2022/04/16 01:18:24;;;;;;;32.93;18.67;;;;;;;-145.18;100.00;60484.78;5031234;28;20036;-69
2022/04/16 01:20:50;;;;;;;31.03;17.47;;;;;;;-145.18;100.00;60484.78;5032830;28;20043;-69
2022/04/16 01:23:15;;;;;;;36.13;18.20;;;;;;;-145.18;100.00;60484.78;5029312;28;20029;-69
2022/04/16 01:25:42;;;;;;;34.93;19.10;;;;;;;-145.18;100.00;60484.78;5028341;28;20029;-69
2022/04/16 01:28:09;;;;;;;37.03;19.47;;;;;;;-145.18;100.00;60484.78;5003798;28;20061;-69
2022/04/16 01:30:35;;;;;;;38.30;20.10;;;;;;;-145.18;100.00;60484.78;5025445;28;20033;-69
2022/04/16 01:33:03;;;;;;;34.50;19.23;;;;;;;-145.18;100.00;60484.78;5025578;28;20047;-69
2022/04/16 01:35:28;;;;;;;33.83;18.60;;;;;;;-145.18;100.00;60484.78;5023815;28;20465;-69
2022/04/16 01:37:54;;;;;;;32.37;16.53;;;;;;;-145.18;100.00;60484.78;5021649;28;20084;-69
2022/04/16 01:40:25;;;;;;;36.90;18.30;;;;;;;-145.18;100.00;60484.78;5024250;28;20037;-69
2022/04/16 01:42:56;;;;;;;32.05;18.02;;;;;;;-145.18;100.00;60484.78;5024321;28;20582;-69
2022/04/16 01:45:23;;;;;;;37.33;18.40;;;;;;;-145.18;100.00;60484.78;5023190;28;20108;-69
2022/04/16 01:47:50;;;;;;;36.43;18.67;;;;;;;-145.18;100.00;60484.78;5025125;28;20033;-69
2022/04/16 01:50:16;;;;;;;36.53;17.70;;;;;;;-145.18;100.00;60484.78;5025105;28;20474;-69
2022/04/16 01:52:42;;;;;;;34.17;18.57;;;;;;;-145.18;100.00;60484.78;5024856;28;20018;-69
2022/04/16 01:55:09;;;;;;;34.70;18.03;;;;;;;-145.18;100.00;60484.78;5024356;28;20021;-69
2022/04/16 01:57:34;;;;;;;32.77;17.07;;;;;;;-145.18;100.00;60484.78;5026319;28;20036;-69
2022/04/16 01:59:59;;;;;;;35.63;17.40;;;;;;;-145.18;100.00;60484.78;5029046;28;20021;-69
2022/04/16 02:02:25;;;;;;;34.53;18.27;;;;;;;-145.18;100.00;60484.78;5023655;28;20057;-69
2022/04/16 02:04:51;;;;;;;33.73;16.90;;;;;;;-145.18;100.00;60484.78;5021707;28;20068;-69
2022/04/16 02:07:16;;;;;;;35.87;18.50;;;;;;;-145.18;100.00;60484.78;5024301;28;20079;-69
2022/04/16 02:09:41;;;;;;;30.07;16.30;;;;;;;-145.18;100.00;60484.78;5022903;28;20040;-69
2022/04/16 02:12:07;;;;;;;34.80;17.67;;;;;;;-145.18;100.00;60484.78;5018857;28;20025;-69
2022/04/16 02:14:33;;;;;;;36.17;18.27;;;;;;;-145.18;100.00;60484.78;5023746;28;20025;-69
2022/04/16 02:16:59;;;;;;;36.20;18.00;;;;;;;-145.18;100.00;60484.78;5030976;28;20048;-69
2022/04/16 02:19:25;;;;;;;35.23;17.03;;;;;;;-145.18;100.00;60484.78;5027717;28;20101;-69
2022/04/16 02:21:51;;;;;;;32.50;16.73;;;;;;;-145.18;100.00;60484.78;5030115;28;20039;-69
2022/04/16 02:24:17;;;;;;;33.20;17.23;;;;;;;-145.18;100.00;60484.78;5017427;28;20030;-69
2022/04/16 02:26:46;;;;;;;32.40;16.50;;;;;;;-145.18;100.00;60484.78;5024013;28;20021;-69
2022/04/16 02:29:13;;;;;;;30.67;13.13;;;;;;;-145.18;100.00;60484.78;5023089;28;20025;-69
2022/04/16 02:31:38;;;;;;;30.77;16.87;;;;;;;-145.18;100.00;60484.78;5025358;28;20369;-69
2022/04/16 02:34:10;;;;;;;29.03;14.50;;;;;;;-145.18;100.00;60484.78;5026738;28;20018;-69
2022/04/16 02:36:36;;;;;;;29.55;13.25;;;;;;;-145.18;100.00;60484.78;5016391;28;20109;-69
2022/04/16 02:39:02;;;;;;;32.83;15.80;;;;;;;-145.18;100.00;60484.78;5020283;28;20541;-69
2022/04/16 02:41:28;;;;;;;20.20;10.33;;;;;;;-145.18;100.00;60484.78;5030498;28;20497;-69
2022/04/16 02:43:58;;;;;;;19.57;10.00;;;;;;;-145.18;100.00;60484.78;5028648;28;20072;-69
2022/04/16 02:49:13;;;;;;;17.23;9.13;;;;;;;-145.18;100.00;60484.78;5021931;28;20040;-69
2022/04/16 02:51:38;;;;;;;12.63;6.20;;;;;;;-145.18;100.00;60484.78;5027547;28;20083;-69
2022/04/16 02:54:05;;;;;;;13.63;6.23;;;;;;;-145.18;100.00;60484.78;5022616;28;20048;-69
2022/04/16 02:56:31;;;;;;;11.93;5.67;;;;;;;-145.18;100.00;60484.78;5026754;28;20042;-69
2022/04/16 02:58:56;;;;;;;14.47;7.27;;;;;;;-145.18;100.00;60484.78;5025766;28;20433;-69
2022/04/16 03:01:21;;;;;;;12.83;6.00;;;;;;;-145.18;100.00;60484.78;5027697;28;20100;-68
2022/04/16 03:03:47;;;;;;;15.27;7.70;;;;;;;-145.18;100.00;60484.78;5026771;28;20037;-68
2022/04/16 03:06:12;;;;;;;14.77;6.50;;;;;;;-145.18;100.00;60484.78;5027106;28;20108;-68
2022/04/16 03:08:37;;;;;;;14.27;6.30;;;;;;;-145.18;100.00;60484.78;5017739;28;20040;-68
2022/04/16 03:11:05;;;;;;;13.07;6.67;;;;;;;-145.18;100.00;60484.78;5030241;28;20476;-68
2022/04/16 03:13:34;;;;;;;13.33;6.43;;;;;;;-145.18;100.00;60484.78;5028670;28;20028;-68
2022/04/16 03:18:45;;;;;;;15.30;6.53;;;;;;;-145.18;100.00;60484.78;5025307;28;20069;-68
2022/04/16 03:21:11;;;;;;;13.63;6.53;;;;;;;-145.18;100.00;60484.78;5021802;28;20030;-68
2022/04/16 03:23:36;;;;;;;9.80;5.47;;;;;;;-145.18;100.00;60484.78;5017020;28;20040;-69
2022/04/16 03:26:01;;;;;;;12.53;5.37;;;;;;;-145.18;100.00;60484.78;5026706;28;20028;-68
2022/04/16 03:28:27;;;;;;;11.00;4.13;;;;;;;-145.18;100.00;60484.78;5024991;28;20555;-68
2022/04/16 03:30:53;;;;;;;6.07;2.93;;;;;;;-145.18;100.00;60484.78;5021794;28;20030;-68
2022/04/16 03:33:19;;;;;;;9.77;3.70;;;;;;;-145.18;100.00;60484.78;5017705;28;20025;-68
2022/04/16 03:35:45;;;;;;;8.70;4.03;;;;;;;-145.18;100.00;60484.78;5025066;28;20125;-68
2022/04/16 03:38:10;;;;;;;11.97;4.00;;;;;;;-145.18;100.00;60484.78;5022129;28;20108;-68
2022/04/16 03:40:36;;;;;;;9.67;3.77;;;;;;;-145.18;100.00;60484.78;5002157;28;20076;-68
2022/04/16 03:43:02;;;;;;;10.87;4.37;;;;;;;-145.18;100.00;60484.78;5023965;28;20025;-68
2022/04/16 03:45:32;;;;;;;11.77;4.70;;;;;;;-145.18;100.00;60484.78;5021695;28;20053;-68
2022/04/16 03:47:58;;;;;;;8.57;4.00;;;;;;;-145.18;100.00;60484.78;5024380;28;20029;-68
2022/04/16 03:50:26;;;;;;;5.73;2.77;;;;;;;-145.18;100.00;60484.78;5021528;28;20651;-68
2022/04/16 03:52:53;;;;;;;5.87;2.67;;;;;;;-145.18;100.00;60484.78;5026951;28;20116;-68
2022/04/16 04:00:49;;;;;;;4.77;2.40;;;;;;;-145.18;100.00;60484.78;5021742;28;20080;-68
2022/04/16 04:03:15;;;;;;;6.23;1.83;;;;;;;-145.18;100.00;60484.78;5020824;28;20053;-69
2022/04/16 04:05:45;;;;;;;6.33;2.00;;;;;;;-145.18;100.00;60484.78;5024235;28;20029;-68
2022/04/16 04:08:10;;;;;;;5.77;1.93;;;;;;;-145.18;100.00;60484.78;5027739;28;20556;-68
2022/04/16 04:10:36;;;;;;;10.87;4.83;;;;;;;-145.18;100.00;60484.78;5015101;28;20140;-68
2022/04/16 04:13:02;;;;;;;9.60;3.70;;;;;;;-145.18;100.00;60484.78;5021631;28;20026;-68
2022/04/16 04:15:29;;;;;;;5.40;2.20;;;;;;;-145.18;100.00;60484.78;5023476;28;20565;-68
2022/04/16 04:17:55;;;;;;;5.03;2.47;;;;;;;-145.18;100.00;60484.78;5021088;28;20030;-68
2022/04/16 04:20:21;;;;;;;4.10;2.47;;;;;;;-145.18;100.00;60484.78;5026392;28;20037;-68
2022/04/16 04:22:46;;;;;;;3.80;2.03;;;;;;;-145.18;100.00;60484.78;5027431;28;20034;-68
2022/04/16 04:25:12;;;;;;;4.67;2.73;;;;;;;-145.18;100.00;60484.78;5020606;28;20167;-68
2022/04/16 04:27:37;;;;;;;5.73;2.70;;;;;;;-145.18;100.00;60484.78;5017790;28;20416;-68
2022/04/16 04:30:04;;;;;;;5.70;2.43;;;;;;;-145.18;100.00;60484.78;5023791;28;20433;-68
2022/04/16 04:32:29;;;;;;;4.80;1.97;;;;;;;-145.18;100.00;60484.78;5019677;28;20025;-68
2022/04/16 04:34:54;;;;;;;4.00;2.07;;;;;;;-145.18;100.00;60484.78;5025217;28;20440;-68
2022/04/16 04:37:20;;;;;;;4.70;2.30;;;;;;;-145.18;100.00;60484.78;5021050;28;20025;-68
2022/04/16 04:39:45;;;;;;;6.97;2.40;;;;;;;-145.18;100.00;60484.78;5021680;28;20025;-68
2022/04/16 04:42:11;;;;;;;4.77;2.60;;;;;;;-145.18;100.00;60484.78;5022610;28;20428;-68
2022/04/16 04:44:37;;;;;;;6.37;2.90;;;;;;;-145.18;100.00;60484.78;5019451;28;20031;-68
2022/04/16 04:47:03;;;;;;;5.70;2.17;;;;;;;-145.18;100.00;60484.78;5022495;28;20029;-69
2022/04/16 04:49:28;;;;;;;6.73;2.67;;;;;;;-145.18;100.00;60484.78;5019925;28;20466;-69
2022/04/16 04:51:53;;;;;;;5.23;2.33;;;;;;;-145.18;100.00;60484.78;5020192;28;20152;-68
2022/04/16 04:54:19;;;;;;;5.23;2.57;;;;;;;-145.18;100.00;60484.78;5027383;28;20022;-68
2022/04/16 04:56:44;;;;;;;11.33;3.80;;;;;;;-145.18;100.00;60484.78;5030261;28;20111;-69
2022/04/16 04:59:10;;;;;;;8.20;2.43;;;;;;;-145.18;100.00;60484.78;5023878;28;20037;-68
2022/04/16 05:01:36;;;;;;;6.97;2.70;;;;;;;-145.18;100.00;60484.78;5023441;28;20024;-69
2022/04/16 05:04:02;;;;;;;6.70;2.70;;;;;;;-145.18;100.00;60484.78;5025891;28;21600;-68
2022/04/16 05:06:27;;;;;;;6.33;2.30;;;;;;;-145.18;100.00;60484.78;5019953;28;20033;-68
2022/04/16 05:08:53;;;;;;;6.53;2.77;;;;;;;-145.18;100.00;60484.78;5028844;28;20032;-68
2022/04/16 05:11:19;;;;;;;6.10;2.60;;;;;;;-145.18;100.00;60484.78;5019938;28;20025;-69
2022/04/16 05:13:44;;;;;;;6.33;2.53;;;;;;;-145.18;100.00;60484.78;5026309;28;20100;-69
2022/04/16 05:16:12;;;;;;;4.97;2.20;;;;;;;-145.18;100.00;60484.78;5023223;28;20454;-69
2022/04/16 05:18:37;;;;;;;5.27;2.40;;;;;;;-145.18;100.00;60484.78;5021901;28;20093;-68
2022/04/16 05:21:03;;;;;;;6.37;2.40;;;;;;;-145.18;100.00;60484.78;5028784;28;20021;-69
2022/04/16 05:23:28;;;;;;;4.03;1.87;;;;;;;-145.18;100.00;60484.78;5024537;28;20025;-68
2022/04/16 05:25:53;;;;;;;7.43;2.33;;;;;;;-145.18;100.00;60484.78;5021921;28;20052;-68
2022/04/16 05:28:19;;;;;;;5.70;2.30;;;;;;;-145.18;100.00;60484.78;5025557;28;20030;-68
2022/04/16 05:30:54;;;;;;;5.80;1.97;;;;;;;-145.18;100.00;60484.78;5019179;28;20401;-68
2022/04/16 05:36:24;;;;;;;5.27;2.00;;;;;;;-145.18;100.00;60484.78;4952247;28;20038;-69
2022/04/16 05:38:50;;;;;;;4.37;1.70;;;;;;;-145.18;100.00;60484.78;4948932;28;20046;-69
2022/04/16 05:41:15;;;;;;;6.20;1.97;;;;;;;-145.18;100.00;60484.78;4985828;28;20120;-69
2022/04/16 05:43:41;;;;;;;4.07;2.00;;;;;;;-145.18;100.00;60484.78;5025395;28;20033;-69
2022/04/16 05:46:06;;;;;;;3.97;1.50;;;;;;;-145.18;100.00;60484.78;5027809;28;20021;-69
2022/04/16 05:48:31;;;;;;;3.43;1.40;;;;;;;-145.18;100.00;60484.78;5024877;28;20081;-69
2022/04/16 05:50:58;;;;;;;4.57;1.63;;;;;;;-145.18;100.00;60484.78;5025851;28;20425;-69
2022/04/16 05:53:24;;;;;;;5.43;1.70;;;;;;;-145.18;100.00;60484.78;5017894;28;20478;-69
2022/04/16 05:55:53;;;;;;;5.43;1.63;;;;;;;-145.18;100.00;60484.78;5027813;28;20033;-69
2022/04/16 05:58:18;;;;;;;3.73;1.60;;;;;;;-145.18;100.00;60484.78;5024587;28;20079;-70
2022/04/16 06:00:44;;;;;;;3.20;1.10;;;;;;;-145.18;100.00;60484.78;5026355;28;20056;-70
2022/04/16 06:03:09;;;;;;;7.20;1.87;;;;;;;-145.18;100.00;60484.78;5025004;28;20018;-70
2022/04/16 06:05:35;;;;;;;4.70;1.50;;;;;;;-145.18;100.00;60484.78;5017575;28;20069;-70
2022/04/16 06:08:01;;;;;;;2.80;1.30;;;;;;;-145.18;100.00;60484.78;5020128;28;20482;-71
2022/04/16 06:10:27;;;;;;;2.50;1.00;;;;;;;-145.18;100.00;60484.78;5018253;28;20116;-71
2022/04/16 06:12:53;;;;;;;3.43;1.50;;;;;;;-145.18;100.00;60484.78;5024885;28;20492;-71
2022/04/16 06:15:18;;;;;;;3.60;1.00;;;;;;;-145.18;100.00;60484.78;5023757;28;20025;-71
2022/04/16 06:17:44;;;;;;;2.80;1.30;;;;;;;-145.18;100.00;60484.78;5027283;28;20030;-71
2022/04/16 06:20:10;;;;;;;3.17;1.40;;;;;;;-145.18;100.00;60484.78;5025712;28;20028;-71
2022/04/16 06:22:36;;;;;;;5.70;1.70;;;;;;;-145.18;100.00;60484.78;5021026;28;20115;-71
2022/04/16 06:25:02;;;;;;;4.87;1.50;;;;;;;-145.18;100.00;60484.78;5028956;28;20017;-71
2022/04/16 06:27:28;;;;;;;3.67;1.40;;;;;;;-145.18;100.00;60484.78;5026982;28;20811;-71
2022/04/16 06:29:54;;;;;;;4.27;1.50;;;;;;;-145.18;100.00;60484.78;5023753;28;20021;-71
2022/04/16 06:32:19;;;;;;;4.33;1.43;;;;;;;-145.18;100.00;60484.78;5027831;28;20037;-71
2022/04/16 06:34:45;;;;;;;4.17;1.30;;;;;;;-145.18;100.00;60484.78;5021907;28;20382;-71
2022/04/16 06:37:10;;;;;;;3.70;1.43;;;;;;;-145.18;100.00;60484.78;5025913;28;20029;-71
2022/04/16 06:39:36;;;;;;;4.83;1.20;;;;;;;-145.18;100.00;60484.78;5027028;28;20053;-71
2022/04/16 06:42:01;;;;;;;3.97;1.30;;;;;;;-145.18;100.00;60484.78;5028541;28;20026;-71
2022/04/16 06:44:27;;;;;;;3.73;1.20;;;;;;;-145.18;100.00;60484.78;5029953;28;20084;-72
2022/04/16 06:46:54;;;;;;;2.63;1.30;;;;;;;-145.18;100.00;60484.78;5028985;28;20493;-72
2022/04/16 06:49:20;;;;;;;4.60;1.53;;;;;;;-145.18;100.00;60484.78;5026179;28;20385;-71
2022/04/16 06:51:45;;;;;;;3.53;1.20;;;;;;;-145.18;100.00;60484.78;5028740;28;20029;-71
2022/04/16 06:54:11;;;;;;;4.73;1.50;;;;;;;-145.18;100.00;60484.78;5027216;28;20059;-71
2022/04/16 06:56:36;;;;;;;2.67;1.00;;;;;;;-145.18;100.00;60484.78;5027754;28;20037;-71
2022/04/16 06:59:01;;;;;;;4.97;1.47;;;;;;;-145.18;100.00;60484.78;5027937;28;20053;-71
2022/04/16 07:01:27;;;;;;;3.30;1.80;;;;;;;-145.18;100.00;60484.78;5027242;28;20393;-71
2022/04/16 07:03:53;;;;;;;3.27;1.30;;;;;;;-145.18;100.00;60484.78;5025341;28;20029;-70
2022/04/16 07:06:19;;;;;;;4.77;1.50;;;;;;;-145.18;100.00;60484.78;5030005;28;20028;-71
2022/04/16 07:08:44;;;;;;;8.17;1.70;;;;;;;-145.18;100.00;60484.78;5030690;28;20029;-70
2022/04/16 07:11:09;;;;;;;2.37;1.07;;;;;;;-145.18;100.00;60484.78;5032763;28;20540;-71
2022/04/16 07:13:35;;;;;;;2.83;1.33;;;;;;;-145.18;100.00;60484.78;5028725;28;20029;-71
2022/04/16 07:16:00;;;;;;;3.43;1.50;;;;;;;-145.18;100.00;60484.78;5027909;28;20061;-71
2022/04/16 07:18:26;;;;;;;3.50;1.40;;;;;;;-145.18;100.00;60484.78;5019887;28;20486;-70
2022/04/16 07:20:51;;;;;;;4.77;1.30;;;;;;;-145.18;100.00;60484.78;5036627;28;20020;-71
2022/04/16 07:23:17;;;;;;;3.83;1.20;;;;;;;-145.18;100.00;60484.78;5043081;28;20033;-70
2022/04/16 07:25:42;;;;;;;5.07;1.30;;;;;;;-145.18;100.00;60484.78;5029302;28;20057;-69
2022/04/16 07:28:07;;;;;;;4.47;1.30;;;;;;;-145.18;100.00;60484.78;5021999;28;20025;-69
2022/04/16 07:30:33;;;;;;;4.67;1.27;;;;;;;-145.18;100.00;60484.78;5028652;28;20061;-70
2022/04/16 07:32:58;;;;;;;3.23;1.20;;;;;;;-145.18;100.00;60484.78;5030638;28;20163;-70
2022/04/16 07:35:26;;;;;;;3.97;1.20;;;;;;;-145.18;100.00;60484.78;5029037;28;20034;-70
2022/04/16 07:37:56;;;;;;;3.50;1.13;;;;;;;-145.18;100.00;60484.78;5028265;28;20040;-70
2022/04/16 07:40:23;;;;;;;2.47;1.10;;;;;;;-145.18;100.00;60484.78;5026817;28;20021;-70
2022/04/16 07:42:48;;;;;;;3.40;1.23;;;;;;;-145.18;100.00;60484.78;5029623;28;20082;-71
2022/04/16 07:45:13;;;;;;;3.37;1.23;;;;;;;-145.18;100.00;60484.78;5026619;28;20116;-71
2022/04/16 07:47:39;;;;;;;4.67;1.30;;;;;;;-145.18;100.00;60484.78;5026081;28;20061;-71
2022/04/16 07:50:04;;;;;;;5.73;1.50;;;;;;;-145.18;100.00;60484.78;5027374;28;20483;-70
2022/04/16 07:52:30;;;;;;;5.00;1.60;;;;;;;-145.18;100.00;60484.78;5030083;28;20052;-70
2022/04/16 07:54:55;;;;;;;4.13;1.47;;;;;;;-145.18;100.00;60484.78;5027916;28;20025;-70
2022/04/16 07:57:21;;;;;;;3.83;1.13;;;;;;;-145.18;100.00;60484.78;5024109;28;20473;-71
2022/04/16 07:59:46;;;;;;;3.30;1.20;;;;;;;-145.18;100.00;60484.78;5020923;28;20048;-70
2022/04/16 08:02:13;;;;;;;3.80;1.20;;;;;;;-145.18;100.00;60484.78;5026905;28;20072;-70
2022/04/16 08:04:38;;;;;;;3.37;0.93;;;;;;;-145.18;100.00;60484.78;5025619;28;20038;-70
2022/04/16 08:07:04;;;;;;;5.90;1.30;;;;;;;-145.18;100.00;60484.78;5026694;28;20389;-70
2022/04/16 08:09:29;;;;;;;4.70;1.27;;;;;;;-145.18;100.00;60484.78;5018902;28;20034;-70
2022/04/16 08:11:57;;;;;;;2.35;1.05;;;;;;;-145.18;100.00;60484.78;5030013;28;20117;-70
2022/04/16 08:14:23;;;;;;;2.78;1.17;;;;;;;-145.18;100.00;60484.78;5026619;28;20091;-70
2022/04/16 08:16:49;;;;;;;3.60;0.90;;;;;;;-145.18;100.00;60484.78;5027101;28;20068;-70
2022/04/16 08:19:14;;;;;;;2.83;0.95;;;;;;;-145.18;100.00;60484.78;5013979;28;20025;-71
2022/04/16 08:21:40;;;;;;;2.72;0.80;;;;;;;-145.18;100.00;60484.78;5014778;28;20041;-70
2022/04/16 08:24:13;;;;;;;1.92;0.80;;;;;;;-145.18;100.00;60484.78;5016767;28;20080;-71
2022/04/16 08:26:41;;;;;;;2.75;0.80;;;;;;;-145.18;100.00;60484.78;5024995;28;20066;-70
2022/04/16 08:29:07;;;;;;;1.90;0.93;;;;;;;-145.18;100.00;60484.78;5005462;28;20029;-70
2022/04/16 08:31:33;;;;;;;1.95;0.90;;;;;;;-145.18;100.00;60484.78;5023882;28;20037;-70
2022/04/16 08:33:59;;;;;;;2.42;0.75;;;;;;;-145.18;100.00;60484.78;5029428;28;20025;-72
2022/04/16 08:36:25;;;;;;;3.03;0.80;;;;;;;-145.18;100.00;60484.78;5032460;28;20060;-70
2022/04/16 08:38:50;;;;;;;2.10;0.70;;;;;;;-145.18;100.00;60484.78;5031054;28;20068;-69
2022/04/16 08:41:16;;;;;;;2.77;0.80;;;;;;;-145.18;100.00;60484.78;5025718;28;20113;-69
2022/04/16 08:43:42;;;;;;;1.13;0.60;;;;;;;-145.18;100.00;60484.78;5022692;28;20040;-70
2022/04/16 08:46:08;;;;;;;1.63;0.80;;;;;;;-145.18;100.00;60484.78;5029052;28;20541;-70
2022/04/16 08:48:35;;;;;;;4.18;0.77;;;;;;;-145.18;100.00;60484.78;5023515;28;20025;-69
2022/04/16 08:51:01;;;;;;;2.78;0.70;;;;;;;-145.18;100.00;60484.78;5023926;28;20033;-70
2022/04/16 08:53:26;;;;;;;1.88;0.77;;;;;;;-145.18;100.00;60484.78;5029321;28;20029;-70
2022/04/16 08:55:52;;;;;;;3.35;0.90;;;;;;;-145.18;100.00;60484.78;5026299;28;20040;-69
2022/04/16 08:58:17;;;;;;;2.90;0.80;;;;;;;-145.18;100.00;60484.78;5025301;28;20108;-70
2022/04/16 09:00:42;;;;;;;4.25;1.30;;;;;;;-145.18;100.00;60484.78;5026620;28;20036;-70
2022/04/16 09:03:09;;;;;;;2.25;0.70;;;;;;;-145.18;100.00;60484.78;5026856;28;20025;-70
2022/04/16 09:05:35;;;;;;;2.05;0.80;;;;;;;-145.18;100.00;60484.78;5005980;28;20029;-69
2022/04/16 09:08:05;;;;;;;1.67;0.60;;;;;;;-145.18;100.00;60484.78;5025527;28;20044;-70
2022/04/16 09:10:33;;;;;;;3.83;0.68;;;;;;;-145.18;100.00;60484.78;5025945;28;20037;-70
2022/04/16 09:13:01;;;;;;;3.38;0.52;;;;;;;-145.18;100.00;60484.78;5029585;28;20021;-70
2022/04/16 09:15:27;;;;;;;1.10;0.50;;;;;;;-145.18;100.00;60484.78;5027830;28;20087;-70
2022/04/16 09:18:01;;;;;;;2.30;0.70;;;;;;;-145.18;100.00;60484.78;5026667;28;20029;-70
2022/04/16 09:20:38;;;;;;;1.88;0.70;;;;;;;-145.18;100.00;60484.78;5025873;28;20094;-70
2022/04/16 09:23:19;;;;;;;1.95;0.73;;;;;;;-145.18;100.00;60484.78;5025477;28;20033;-71
2022/04/16 09:25:48;;;;;;;1.42;0.60;;;;;;;-145.18;100.00;60484.78;5025738;28;20033;-71
2022/04/16 09:28:17;;;;;;;3.38;0.93;;;;;;;-145.18;100.00;60484.78;5027167;28;20095;-70
2022/04/16 09:30:51;;;;;;;2.22;0.85;;;;;;;-145.18;100.00;60484.78;5025082;28;20025;-70
2022/04/16 09:33:21;;;;;;;1.67;0.70;;;;;;;-145.18;100.00;60484.78;5023520;28;20032;-70
2022/04/16 09:35:47;;;;;;;5.03;0.90;;;;;;;-145.18;100.00;60484.78;5028307;28;20060;-71
2022/04/16 09:38:19;;;;;;;2.03;0.70;;;;;;;-145.18;100.00;60484.78;5026645;28;20052;-72
2022/04/16 09:40:50;;;;;;;3.00;0.80;;;;;;;-145.18;100.00;60484.78;5004307;28;20033;-70
2022/04/16 09:43:16;;;;;;;2.83;0.80;;;;;;;-145.18;100.00;60484.78;5025860;28;20492;-70
2022/04/16 09:48:28;;;;;;;4.22;0.98;;;;;;;-145.18;100.00;60484.78;5015904;28;20037;-70
2022/04/16 09:50:55;;;;;;;2.42;0.85;;;;;;;-145.18;100.00;60484.78;5029642;28;20036;-71
2022/04/16 09:53:23;;;;;;;1.20;0.50;;;;;;;-145.18;100.00;60484.78;5031994;28;20477;-71
2022/04/16 09:55:48;;;;;;;1.83;0.80;;;;;;;-145.18;100.00;60484.78;5025793;28;20060;-71
2022/04/16 09:58:23;;;;;;;2.38;0.82;;;;;;;-145.18;100.00;60484.78;5026715;28;20037;-71
2022/04/16 10:00:49;;;;;;;1.92;0.70;;;;;;;-145.18;100.00;60484.78;5024429;28;20041;-71
2022/04/16 10:03:15;;;;;;;2.35;0.90;;;;;;;-145.18;100.00;60484.78;5018743;28;20488;-71
2022/04/16 10:05:42;;;;;;;1.55;0.68;;;;;;;-145.18;100.00;60484.78;5028637;28;20112;-71
2022/04/16 10:08:10;;;;;;;1.67;0.60;;;;;;;-145.18;100.00;60484.78;5012896;28;20473;-71
2022/04/16 10:10:51;;;;;;;2.10;0.60;;;;;;;-145.18;100.00;60484.78;5028254;28;20023;-71
2022/04/16 10:13:19;;;;;;;2.63;0.90;;;;;;;-145.18;100.00;60484.78;5027261;28;20124;-71
2022/04/16 10:16:06;;;;;;;2.22;0.80;;;;;;;-145.18;100.00;60484.78;5025184;28;20025;-71
2022/04/16 10:18:34;;;;;;;2.20;0.80;;;;;;;-145.18;100.00;60484.78;5008200;28;20483;-71
2022/04/16 10:21:00;;;;;;;1.38;0.80;;;;;;;-145.18;100.00;60484.78;5002087;28;20037;-72
2022/04/16 10:23:27;;;;;;;3.28;0.98;;;;;;;-145.18;100.00;60484.78;5024484;28;20030;-72
2022/04/16 10:26:09;;;;;;;5.82;0.88;;;;;;;-145.18;100.00;60484.78;5030628;28;20034;-71
2022/04/16 10:28:41;;;;;;;2.80;0.90;;;;;;;-145.18;100.00;60484.78;5026484;28;20022;-72
2022/04/16 10:31:22;;;;;;;2.45;0.90;;;;;;;-145.18;100.00;60484.78;5027317;28;20112;-72
2022/04/16 10:34:01;;;;;;;3.92;1.10;;;;;;;-145.18;100.00;60484.78;5025711;28;20032;-71
2022/04/16 10:36:38;;;;;;;2.55;0.90;;;;;;;-145.18;100.00;60484.78;5026574;28;20025;-71
2022/04/16 10:39:23;;;;;;;4.15;0.80;;;;;;;-145.18;100.00;60484.78;5019929;28;20485;-71
2022/04/16 10:41:56;;;;;;;1.73;0.80;;;;;;;-145.18;100.00;60484.78;5025517;28;20025;-71
2022/04/16 10:44:22;;;;;;;2.88;1.00;;;;;;;-145.18;100.00;60484.78;5026334;28;20025;-71
2022/04/16 10:46:53;;;;;;;5.78;1.08;;;;;;;-145.18;100.00;60484.78;5023534;28;20026;-71
2022/04/16 10:49:21;;;;;;;3.28;0.82;;;;;;;-145.18;100.00;60484.78;5020556;28;20029;-70
2022/04/16 10:51:47;;;;;;;2.00;0.80;;;;;;;-145.18;100.00;60484.78;5022791;28;20423;-70
2022/04/16 10:54:15;;;;;;;2.83;0.90;;;;;;;-145.18;100.00;60484.78;5022652;28;20068;-70
2022/04/16 10:56:52;;;;;;;1.27;0.70;;;;;;;-145.18;100.00;60484.78;5028473;28;20041;-70
2022/04/16 10:59:17;;;;;;;1.65;0.85;;;;;;;-145.18;100.00;60484.78;5027512;28;20036;-70
2022/04/16 11:01:52;;;;;;;2.08;0.80;;;;;;;-145.18;100.00;60484.78;5024143;28;20025;-70
2022/04/16 11:04:18;;;;;;;0.98;0.60;;;;;;;-145.18;100.00;60484.78;5026299;28;20033;-71
2022/04/16 11:06:54;;;;;;;2.70;0.85;;;;;;;-145.18;100.00;60484.78;5027583;28;20404;-70
2022/04/16 11:09:19;;;;;;;1.25;0.63;;;;;;;-145.18;100.00;60484.78;5015899;28;20017;-71
2022/04/16 11:11:50;;;;;;;2.10;1.00;;;;;;;-145.18;100.00;60484.78;5028325;28;20039;-70
2022/04/16 11:14:16;;;;;;;3.78;1.00;;;;;;;-145.18;100.00;60484.78;5026286;28;20068;-71
2022/04/16 11:16:45;;;;;;;3.35;1.10;;;;;;;-145.18;100.00;60484.78;5025628;28;20025;-70
2022/04/16 11:19:16;;;;;;;2.00;0.80;;;;;;;-145.18;100.00;60484.78;5020961;28;20033;-70